sensor_id;sensor_type;location;lat;lon;timestamp;temperature;humidity
20171;DHT22;10245;51.344;6.620;2022-08-03T00:00:55;23.30;82.30
20171;DHT22;10245;51.344;6.620;2022-08-03T00:03:19;23.20;82.50
20171;DHT22;10245;51.344;6.620;2022-08-03T00:05:43;23.20;82.40
20171;DHT22;10245;51.344;6.620;2022-08-03T00:08:25;23.20;82.70
20171;DHT22;10245;51.344;6.620;2022-08-03T00:10:51;23.10;82.20
20171;DHT22;10245;51.344;6.620;2022-08-03T00:13:15;23.30;82.50
20171;DHT22;10245;51.344;6.620;2022-08-03T00:15:41;23.20;82.30
20171;DHT22;10245;51.344;6.620;2022-08-03T00:18:05;23.10;81.80
20171;DHT22;10245;51.344;6.620;2022-08-03T00:20:29;23.20;82.60
20171;DHT22;10245;51.344;6.620;2022-08-03T00:22:53;23.10;83.00
20171;DHT22;10245;51.344;6.620;2022-08-03T00:25:16;23.10;82.50
20171;DHT22;10245;51.344;6.620;2022-08-03T00:27:41;23.20;82.70
20171;DHT22;10245;51.344;6.620;2022-08-03T00:30:06;23.20;81.60
20171;DHT22;10245;51.344;6.620;2022-08-03T00:32:30;23.10;81.40
20171;DHT22;10245;51.344;6.620;2022-08-03T00:34:54;23.20;81.50
20171;DHT22;10245;51.344;6.620;2022-08-03T00:37:20;23.00;82.70
20171;DHT22;10245;51.344;6.620;2022-08-03T00:40:04;23.00;82.60
20171;DHT22;10245;51.344;6.620;2022-08-03T00:42:28;23.00;83.90
20171;DHT22;10245;51.344;6.620;2022-08-03T00:44:54;22.90;83.50
20171;DHT22;10245;51.344;6.620;2022-08-03T00:47:24;22.90;82.80
20171;DHT22;10245;51.344;6.620;2022-08-03T00:49:47;22.90;82.80
20171;DHT22;10245;51.344;6.620;2022-08-03T00:52:12;23.00;81.50
20171;DHT22;10245;51.344;6.620;2022-08-03T00:54:38;23.00;81.20
20171;DHT22;10245;51.344;6.620;2022-08-03T00:57:03;23.00;81.00
20171;DHT22;10245;51.344;6.620;2022-08-03T00:59:26;23.00;81.30
20171;DHT22;10245;51.344;6.620;2022-08-03T01:01:54;23.00;81.90
20171;DHT22;10245;51.344;6.620;2022-08-03T01:04:18;22.90;83.00
20171;DHT22;10245;51.344;6.620;2022-08-03T01:06:45;22.90;82.70
20171;DHT22;10245;51.344;6.620;2022-08-03T01:09:18;22.80;82.30
20171;DHT22;10245;51.344;6.620;2022-08-03T01:11:48;22.80;82.70
20171;DHT22;10245;51.344;6.620;2022-08-03T01:14:29;23.00;81.50
20171;DHT22;10245;51.344;6.620;2022-08-03T01:17:01;23.00;82.20
20171;DHT22;10245;51.344;6.620;2022-08-03T01:19:40;22.80;83.60
20171;DHT22;10245;51.344;6.620;2022-08-03T01:25:03;22.80;82.10
20171;DHT22;10245;51.344;6.620;2022-08-03T01:27:36;22.70;83.40
20171;DHT22;10245;51.344;6.620;2022-08-03T01:30:08;22.80;82.40
20171;DHT22;10245;51.344;6.620;2022-08-03T01:32:45;22.70;83.40
20171;DHT22;10245;51.344;6.620;2022-08-03T01:35:27;22.80;82.50
20171;DHT22;10245;51.344;6.620;2022-08-03T01:38:02;22.60;83.90
20171;DHT22;10245;51.344;6.620;2022-08-03T01:40:28;22.50;83.30
20171;DHT22;10245;51.344;6.620;2022-08-03T01:42:55;22.50;84.70
20171;DHT22;10245;51.344;6.620;2022-08-03T01:45:21;22.40;84.20
20171;DHT22;10245;51.344;6.620;2022-08-03T01:47:46;22.40;83.50
20171;DHT22;10245;51.344;6.620;2022-08-03T01:50:11;22.50;83.70
20171;DHT22;10245;51.344;6.620;2022-08-03T01:52:39;22.50;83.80
20171;DHT22;10245;51.344;6.620;2022-08-03T01:55:04;22.40;83.70
20171;DHT22;10245;51.344;6.620;2022-08-03T01:57:30;22.40;83.60
20171;DHT22;10245;51.344;6.620;2022-08-03T02:00:14;22.40;84.10
20171;DHT22;10245;51.344;6.620;2022-08-03T02:02:42;22.30;84.80
20171;DHT22;10245;51.344;6.620;2022-08-03T02:05:09;22.30;84.00
20171;DHT22;10245;51.344;6.620;2022-08-03T02:07:34;22.20;84.70
20171;DHT22;10245;51.344;6.620;2022-08-03T02:10:00;22.30;84.60
20171;DHT22;10245;51.344;6.620;2022-08-03T02:12:27;22.30;84.00
20171;DHT22;10245;51.344;6.620;2022-08-03T02:14:53;22.20;83.80
20171;DHT22;10245;51.344;6.620;2022-08-03T02:17:22;22.20;84.90
20171;DHT22;10245;51.344;6.620;2022-08-03T02:20:03;22.00;85.50
20171;DHT22;10245;51.344;6.620;2022-08-03T02:22:29;22.10;85.40
20171;DHT22;10245;51.344;6.620;2022-08-03T02:24:53;22.20;85.10
20171;DHT22;10245;51.344;6.620;2022-08-03T02:27:19;22.20;84.80
20171;DHT22;10245;51.344;6.620;2022-08-03T02:29:47;22.20;84.50
20171;DHT22;10245;51.344;6.620;2022-08-03T02:32:13;22.30;84.10
20171;DHT22;10245;51.344;6.620;2022-08-03T02:34:41;22.10;84.10
20171;DHT22;10245;51.344;6.620;2022-08-03T02:37:11;22.10;84.20
20171;DHT22;10245;51.344;6.620;2022-08-03T02:39:35;22.00;85.20
20171;DHT22;10245;51.344;6.620;2022-08-03T02:42:00;22.00;85.60
20171;DHT22;10245;51.344;6.620;2022-08-03T02:44:25;22.00;85.10
20171;DHT22;10245;51.344;6.620;2022-08-03T02:46:54;21.90;85.30
20171;DHT22;10245;51.344;6.620;2022-08-03T02:49:20;22.00;85.60
20171;DHT22;10245;51.344;6.620;2022-08-03T02:52:10;21.90;86.60
20171;DHT22;10245;51.344;6.620;2022-08-03T02:54:38;22.00;85.90
20171;DHT22;10245;51.344;6.620;2022-08-03T02:57:03;22.00;85.70
20171;DHT22;10245;51.344;6.620;2022-08-03T02:59:30;21.90;85.50
20171;DHT22;10245;51.344;6.620;2022-08-03T03:01:54;21.90;86.00
20171;DHT22;10245;51.344;6.620;2022-08-03T03:04:18;21.90;85.10
20171;DHT22;10245;51.344;6.620;2022-08-03T03:06:49;21.90;86.90
20171;DHT22;10245;51.344;6.620;2022-08-03T03:09:16;21.80;86.10
20171;DHT22;10245;51.344;6.620;2022-08-03T03:11:41;21.70;86.00
20171;DHT22;10245;51.344;6.620;2022-08-03T03:14:06;21.80;86.20
20171;DHT22;10245;51.344;6.620;2022-08-03T03:16:32;21.70;85.90
20171;DHT22;10245;51.344;6.620;2022-08-03T03:19:01;21.70;86.00
20171;DHT22;10245;51.344;6.620;2022-08-03T03:21:26;21.60;86.40
20171;DHT22;10245;51.344;6.620;2022-08-03T03:23:50;21.70;86.80
20171;DHT22;10245;51.344;6.620;2022-08-03T03:26:16;21.70;87.20
20171;DHT22;10245;51.344;6.620;2022-08-03T03:28:40;21.70;86.50
20171;DHT22;10245;51.344;6.620;2022-08-03T03:31:05;21.60;86.80
20171;DHT22;10245;51.344;6.620;2022-08-03T03:33:29;21.60;86.90
20171;DHT22;10245;51.344;6.620;2022-08-03T03:35:53;21.60;87.30
20171;DHT22;10245;51.344;6.620;2022-08-03T03:38:17;21.60;86.90
20171;DHT22;10245;51.344;6.620;2022-08-03T03:40:41;21.60;86.60
20171;DHT22;10245;51.344;6.620;2022-08-03T03:43:10;21.60;86.00
20171;DHT22;10245;51.344;6.620;2022-08-03T03:45:35;21.60;86.40
20171;DHT22;10245;51.344;6.620;2022-08-03T03:48:03;21.60;86.30
20171;DHT22;10245;51.344;6.620;2022-08-03T03:50:29;21.50;86.00
20171;DHT22;10245;51.344;6.620;2022-08-03T03:52:53;21.50;86.10
20171;DHT22;10245;51.344;6.620;2022-08-03T03:55:17;21.50;86.90
20171;DHT22;10245;51.344;6.620;2022-08-03T03:57:41;21.50;86.70
20171;DHT22;10245;51.344;6.620;2022-08-03T04:00:07;21.50;87.20
20171;DHT22;10245;51.344;6.620;2022-08-03T04:02:33;21.30;87.40
20171;DHT22;10245;51.344;6.620;2022-08-03T04:04:56;21.40;87.60
20171;DHT22;10245;51.344;6.620;2022-08-03T04:07:44;21.50;87.00
20171;DHT22;10245;51.344;6.620;2022-08-03T04:10:30;21.40;87.30
20171;DHT22;10245;51.344;6.620;2022-08-03T04:13:15;21.50;86.80
20171;DHT22;10245;51.344;6.620;2022-08-03T04:15:41;21.40;86.70
20171;DHT22;10245;51.344;6.620;2022-08-03T04:18:07;21.40;86.40
20171;DHT22;10245;51.344;6.620;2022-08-03T04:20:34;21.30;86.70
20171;DHT22;10245;51.344;6.620;2022-08-03T04:22:58;21.40;86.60
20171;DHT22;10245;51.344;6.620;2022-08-03T04:25:26;21.40;87.00
20171;DHT22;10245;51.344;6.620;2022-08-03T04:27:52;21.40;86.90
20171;DHT22;10245;51.344;6.620;2022-08-03T04:30:42;21.50;86.70
20171;DHT22;10245;51.344;6.620;2022-08-03T04:33:09;21.40;86.50
20171;DHT22;10245;51.344;6.620;2022-08-03T04:35:34;21.40;86.40
20171;DHT22;10245;51.344;6.620;2022-08-03T04:38:18;21.50;86.00
20171;DHT22;10245;51.344;6.620;2022-08-03T04:40:43;21.60;85.70
20171;DHT22;10245;51.344;6.620;2022-08-03T04:43:10;21.60;85.80
20171;DHT22;10245;51.344;6.620;2022-08-03T04:45:36;21.50;85.40
20171;DHT22;10245;51.344;6.620;2022-08-03T04:48:02;21.60;85.80
20171;DHT22;10245;51.344;6.620;2022-08-03T04:50:27;21.80;85.60
20171;DHT22;10245;51.344;6.620;2022-08-03T04:52:58;21.70;85.70
20171;DHT22;10245;51.344;6.620;2022-08-03T04:55:26;21.80;86.50
20171;DHT22;10245;51.344;6.620;2022-08-03T04:57:50;21.70;86.30
20171;DHT22;10245;51.344;6.620;2022-08-03T05:00:14;21.80;85.70
20171;DHT22;10245;51.344;6.620;2022-08-03T05:02:39;21.90;86.00
20171;DHT22;10245;51.344;6.620;2022-08-03T05:05:08;21.80;85.60
20171;DHT22;10245;51.344;6.620;2022-08-03T05:07:33;21.80;85.70
20171;DHT22;10245;51.344;6.620;2022-08-03T05:09:57;21.90;85.50
20171;DHT22;10245;51.344;6.620;2022-08-03T05:12:24;22.00;85.90
20171;DHT22;10245;51.344;6.620;2022-08-03T05:14:59;22.20;85.40
20171;DHT22;10245;51.344;6.620;2022-08-03T05:17:24;22.40;84.10
20171;DHT22;10245;51.344;6.620;2022-08-03T05:19:47;22.60;84.30
20171;DHT22;10245;51.344;6.620;2022-08-03T05:22:12;22.70;83.40
20171;DHT22;10245;51.344;6.620;2022-08-03T05:24:36;22.90;83.10
20171;DHT22;10245;51.344;6.620;2022-08-03T05:27:00;23.10;82.80
20171;DHT22;10245;51.344;6.620;2022-08-03T05:29:23;23.10;82.60
20171;DHT22;10245;51.344;6.620;2022-08-03T05:31:47;23.30;81.80
20171;DHT22;10245;51.344;6.620;2022-08-03T05:34:11;23.50;81.60
20171;DHT22;10245;51.344;6.620;2022-08-03T05:36:34;23.50;81.60
20171;DHT22;10245;51.344;6.620;2022-08-03T05:38:59;23.80;79.60
20171;DHT22;10245;51.344;6.620;2022-08-03T05:41:24;24.00;78.90
20171;DHT22;10245;51.344;6.620;2022-08-03T05:43:58;24.20;78.90
20171;DHT22;10245;51.344;6.620;2022-08-03T05:46:22;24.30;78.40
20171;DHT22;10245;51.344;6.620;2022-08-03T05:48:46;24.40;77.90
20171;DHT22;10245;51.344;6.620;2022-08-03T05:51:10;24.20;78.70
20171;DHT22;10245;51.344;6.620;2022-08-03T05:53:34;24.30;77.70
20171;DHT22;10245;51.344;6.620;2022-08-03T05:55:59;24.40;77.40
20171;DHT22;10245;51.344;6.620;2022-08-03T05:58:34;24.70;77.60
20171;DHT22;10245;51.344;6.620;2022-08-03T06:00:58;24.60;76.70
20171;DHT22;10245;51.344;6.620;2022-08-03T06:03:21;24.90;76.80
20171;DHT22;10245;51.344;6.620;2022-08-03T06:05:45;25.10;76.40
20171;DHT22;10245;51.344;6.620;2022-08-03T06:08:21;25.10;75.20
20171;DHT22;10245;51.344;6.620;2022-08-03T06:10:45;25.30;75.10
20171;DHT22;10245;51.344;6.620;2022-08-03T06:13:10;25.30;75.00
20171;DHT22;10245;51.344;6.620;2022-08-03T06:15:34;25.30;74.40
20171;DHT22;10245;51.344;6.620;2022-08-03T06:17:58;25.50;74.50
20171;DHT22;10245;51.344;6.620;2022-08-03T06:20:23;25.50;74.20
20171;DHT22;10245;51.344;6.620;2022-08-03T06:22:48;25.70;74.70
20171;DHT22;10245;51.344;6.620;2022-08-03T06:25:22;25.80;74.30
20171;DHT22;10245;51.344;6.620;2022-08-03T06:27:47;25.80;74.70
20171;DHT22;10245;51.344;6.620;2022-08-03T06:30:12;26.10;73.20
20171;DHT22;10245;51.344;6.620;2022-08-03T06:32:42;26.00;73.10
20171;DHT22;10245;51.344;6.620;2022-08-03T06:35:13;26.10;73.60
20171;DHT22;10245;51.344;6.620;2022-08-03T06:37:48;26.30;73.20
20171;DHT22;10245;51.344;6.620;2022-08-03T06:40:14;26.60;70.40
20171;DHT22;10245;51.344;6.620;2022-08-03T06:42:45;26.80;70.50
20171;DHT22;10245;51.344;6.620;2022-08-03T06:45:12;26.90;71.50
20171;DHT22;10245;51.344;6.620;2022-08-03T06:47:37;27.00;70.80
20171;DHT22;10245;51.344;6.620;2022-08-03T06:50:06;27.10;69.40
20171;DHT22;10245;51.344;6.620;2022-08-03T06:52:39;27.00;68.60
20171;DHT22;10245;51.344;6.620;2022-08-03T06:55:03;26.70;69.70
20171;DHT22;10245;51.344;6.620;2022-08-03T06:57:28;26.80;70.20
20171;DHT22;10245;51.344;6.620;2022-08-03T06:59:51;27.20;69.30
20171;DHT22;10245;51.344;6.620;2022-08-03T07:02:34;27.40;69.10
20171;DHT22;10245;51.344;6.620;2022-08-03T07:04:57;27.30;69.40
20171;DHT22;10245;51.344;6.620;2022-08-03T07:07:21;26.90;69.10
20171;DHT22;10245;51.344;6.620;2022-08-03T07:09:45;26.90;69.40
20171;DHT22;10245;51.344;6.620;2022-08-03T07:12:18;27.30;70.60
20171;DHT22;10245;51.344;6.620;2022-08-03T07:14:42;27.50;68.80
20171;DHT22;10245;51.344;6.620;2022-08-03T07:17:06;27.50;68.10
20171;DHT22;10245;51.344;6.620;2022-08-03T07:19:34;27.40;69.70
20171;DHT22;10245;51.344;6.620;2022-08-03T07:21:57;27.60;69.60
20171;DHT22;10245;51.344;6.620;2022-08-03T07:24:25;27.80;68.80
20171;DHT22;10245;51.344;6.620;2022-08-03T07:26:49;27.80;67.40
20171;DHT22;10245;51.344;6.620;2022-08-03T07:29:13;27.60;68.10
20171;DHT22;10245;51.344;6.620;2022-08-03T07:31:36;27.70;68.70
20171;DHT22;10245;51.344;6.620;2022-08-03T07:34:00;27.90;68.10
20171;DHT22;10245;51.344;6.620;2022-08-03T07:36:26;27.80;69.30
20171;DHT22;10245;51.344;6.620;2022-08-03T07:38:49;27.90;69.20
20171;DHT22;10245;51.344;6.620;2022-08-03T07:41:13;28.20;68.20
20171;DHT22;10245;51.344;6.620;2022-08-03T07:43:37;28.20;68.60
20171;DHT22;10245;51.344;6.620;2022-08-03T07:46:00;28.30;68.10
20171;DHT22;10245;51.344;6.620;2022-08-03T07:48:24;28.10;68.10
20171;DHT22;10245;51.344;6.620;2022-08-03T07:50:47;28.00;68.20
20171;DHT22;10245;51.344;6.620;2022-08-03T07:53:13;28.10;67.70
20171;DHT22;10245;51.344;6.620;2022-08-03T07:55:36;28.30;66.80
20171;DHT22;10245;51.344;6.620;2022-08-03T07:58:02;28.30;68.20
20171;DHT22;10245;51.344;6.620;2022-08-03T08:00:26;28.60;66.50
20171;DHT22;10245;51.344;6.620;2022-08-03T08:02:50;28.70;64.90
20171;DHT22;10245;51.344;6.620;2022-08-03T08:05:13;28.70;66.80
20171;DHT22;10245;51.344;6.620;2022-08-03T08:07:37;28.80;66.10
20171;DHT22;10245;51.344;6.620;2022-08-03T08:10:03;28.80;65.60
20171;DHT22;10245;51.344;6.620;2022-08-03T08:12:28;28.80;65.80
20171;DHT22;10245;51.344;6.620;2022-08-03T08:14:51;28.90;64.00
20171;DHT22;10245;51.344;6.620;2022-08-03T08:17:15;28.80;65.80
20171;DHT22;10245;51.344;6.620;2022-08-03T08:19:39;29.00;65.90
20171;DHT22;10245;51.344;6.620;2022-08-03T08:22:12;28.90;64.40
20171;DHT22;10245;51.344;6.620;2022-08-03T08:24:36;28.80;64.20
20171;DHT22;10245;51.344;6.620;2022-08-03T08:27:01;28.80;64.30
20171;DHT22;10245;51.344;6.620;2022-08-03T08:29:25;28.90;64.00
20171;DHT22;10245;51.344;6.620;2022-08-03T08:31:49;29.10;62.50
20171;DHT22;10245;51.344;6.620;2022-08-03T08:34:13;29.10;62.60
20171;DHT22;10245;51.344;6.620;2022-08-03T08:36:37;29.40;60.60
20171;DHT22;10245;51.344;6.620;2022-08-03T08:39:00;29.10;61.40
20171;DHT22;10245;51.344;6.620;2022-08-03T08:41:24;29.20;61.50
20171;DHT22;10245;51.344;6.620;2022-08-03T08:43:54;29.20;61.80
20171;DHT22;10245;51.344;6.620;2022-08-03T08:46:24;29.70;60.60
20171;DHT22;10245;51.344;6.620;2022-08-03T08:48:48;29.70;60.90
20171;DHT22;10245;51.344;6.620;2022-08-03T08:51:13;29.70;61.40
20171;DHT22;10245;51.344;6.620;2022-08-03T08:53:42;29.60;60.90
20171;DHT22;10245;51.344;6.620;2022-08-03T08:56:07;29.60;61.00
20171;DHT22;10245;51.344;6.620;2022-08-03T08:58:36;29.60;60.40
20171;DHT22;10245;51.344;6.620;2022-08-03T09:01:02;29.80;60.50
20171;DHT22;10245;51.344;6.620;2022-08-03T09:03:26;29.80;59.10
20171;DHT22;10245;51.344;6.620;2022-08-03T09:05:52;29.80;60.30
20171;DHT22;10245;51.344;6.620;2022-08-03T09:08:17;29.90;58.00
20171;DHT22;10245;51.344;6.620;2022-08-03T09:10:41;29.90;58.90
20171;DHT22;10245;51.344;6.620;2022-08-03T09:13:04;29.90;57.30
20171;DHT22;10245;51.344;6.620;2022-08-03T09:15:31;30.10;58.00
20171;DHT22;10245;51.344;6.620;2022-08-03T09:17:59;30.20;57.60
20171;DHT22;10245;51.344;6.620;2022-08-03T09:20:25;30.10;56.70
20171;DHT22;10245;51.344;6.620;2022-08-03T09:22:56;30.20;57.20
20171;DHT22;10245;51.344;6.620;2022-08-03T09:25:27;30.30;56.80
20171;DHT22;10245;51.344;6.620;2022-08-03T09:27:51;30.20;57.10
20171;DHT22;10245;51.344;6.620;2022-08-03T09:30:16;30.40;57.90
20171;DHT22;10245;51.344;6.620;2022-08-03T09:33:01;30.20;56.00
20171;DHT22;10245;51.344;6.620;2022-08-03T09:35:26;30.40;56.10
20171;DHT22;10245;51.344;6.620;2022-08-03T09:38:12;30.50;55.50
20171;DHT22;10245;51.344;6.620;2022-08-03T09:40:37;30.40;55.90
20171;DHT22;10245;51.344;6.620;2022-08-03T09:43:01;30.50;56.30
20171;DHT22;10245;51.344;6.620;2022-08-03T09:45:25;30.40;56.80
20171;DHT22;10245;51.344;6.620;2022-08-03T09:47:49;30.50;54.50
20171;DHT22;10245;51.344;6.620;2022-08-03T09:50:14;30.50;55.20
20171;DHT22;10245;51.344;6.620;2022-08-03T09:52:39;30.50;56.70
20171;DHT22;10245;51.344;6.620;2022-08-03T09:55:13;30.20;55.40
20171;DHT22;10245;51.344;6.620;2022-08-03T09:58:04;30.30;56.00
20171;DHT22;10245;51.344;6.620;2022-08-03T10:00:30;30.20;54.30
20171;DHT22;10245;51.344;6.620;2022-08-03T10:03:02;30.30;53.80
20171;DHT22;10245;51.344;6.620;2022-08-03T10:05:32;30.40;54.40
20171;DHT22;10245;51.344;6.620;2022-08-03T10:07:56;30.60;55.40
20171;DHT22;10245;51.344;6.620;2022-08-03T10:10:20;30.80;55.30
20171;DHT22;10245;51.344;6.620;2022-08-03T10:12:52;30.90;54.60
20171;DHT22;10245;51.344;6.620;2022-08-03T10:15:15;30.90;54.20
20171;DHT22;10245;51.344;6.620;2022-08-03T10:17:59;31.00;54.30
20171;DHT22;10245;51.344;6.620;2022-08-03T10:20:23;30.90;54.10
20171;DHT22;10245;51.344;6.620;2022-08-03T10:22:48;30.90;53.90
20171;DHT22;10245;51.344;6.620;2022-08-03T10:25:13;31.10;51.20
20171;DHT22;10245;51.344;6.620;2022-08-03T10:27:41;31.10;55.50
20171;DHT22;10245;51.344;6.620;2022-08-03T10:30:06;31.00;54.20
20171;DHT22;10245;51.344;6.620;2022-08-03T10:32:37;30.90;52.90
20171;DHT22;10245;51.344;6.620;2022-08-03T10:35:05;30.90;54.10
20171;DHT22;10245;51.344;6.620;2022-08-03T10:37:43;31.10;54.00
20171;DHT22;10245;51.344;6.620;2022-08-03T10:40:21;31.10;53.70
20171;DHT22;10245;51.344;6.620;2022-08-03T10:43:09;31.10;53.60
20171;DHT22;10245;51.344;6.620;2022-08-03T10:45:39;31.10;54.00
20171;DHT22;10245;51.344;6.620;2022-08-03T10:48:04;31.30;53.20
20171;DHT22;10245;51.344;6.620;2022-08-03T10:50:28;31.40;53.20
20171;DHT22;10245;51.344;6.620;2022-08-03T10:52:56;31.50;53.40
20171;DHT22;10245;51.344;6.620;2022-08-03T10:55:33;31.60;52.60
20171;DHT22;10245;51.344;6.620;2022-08-03T10:58:50;31.60;53.20
20171;DHT22;10245;51.344;6.620;2022-08-03T11:04:22;31.50;52.30
20171;DHT22;10245;51.344;6.620;2022-08-03T11:06:46;31.70;52.00
20171;DHT22;10245;51.344;6.620;2022-08-03T11:09:15;31.70;50.30
20171;DHT22;10245;51.344;6.620;2022-08-03T11:11:43;31.60;50.40
20171;DHT22;10245;51.344;6.620;2022-08-03T11:14:09;31.70;50.50
20171;DHT22;10245;51.344;6.620;2022-08-03T11:16:35;31.80;51.30
20171;DHT22;10245;51.344;6.620;2022-08-03T11:19:00;31.70;51.70
20171;DHT22;10245;51.344;6.620;2022-08-03T11:21:53;31.80;50.70
20171;DHT22;10245;51.344;6.620;2022-08-03T11:24:56;31.80;51.30
20171;DHT22;10245;51.344;6.620;2022-08-03T11:27:22;31.70;51.60
20171;DHT22;10245;51.344;6.620;2022-08-03T11:29:53;31.70;51.60
20171;DHT22;10245;51.344;6.620;2022-08-03T11:35:26;31.90;50.60
20171;DHT22;10245;51.344;6.620;2022-08-03T11:38:10;31.80;50.00
20171;DHT22;10245;51.344;6.620;2022-08-03T11:40:38;31.90;47.90
20171;DHT22;10245;51.344;6.620;2022-08-03T11:43:05;31.80;49.60
20171;DHT22;10245;51.344;6.620;2022-08-03T11:45:30;32.00;47.90
20171;DHT22;10245;51.344;6.620;2022-08-03T11:47:54;32.00;47.10
20171;DHT22;10245;51.344;6.620;2022-08-03T11:50:20;32.00;48.20
20171;DHT22;10245;51.344;6.620;2022-08-03T11:52:45;32.00;47.40
20171;DHT22;10245;51.344;6.620;2022-08-03T11:55:12;31.90;46.60
20171;DHT22;10245;51.344;6.620;2022-08-03T11:57:38;31.90;46.50
20171;DHT22;10245;51.344;6.620;2022-08-03T12:00:28;32.20;48.00
20171;DHT22;10245;51.344;6.620;2022-08-03T12:03:00;32.50;48.40
20171;DHT22;10245;51.344;6.620;2022-08-03T12:05:40;32.50;48.50
20171;DHT22;10245;51.344;6.620;2022-08-03T12:08:20;32.00;47.80
20171;DHT22;10245;51.344;6.620;2022-08-03T12:11:04;32.00;48.10
20171;DHT22;10245;51.344;6.620;2022-08-03T12:13:36;32.00;46.50
20171;DHT22;10245;51.344;6.620;2022-08-03T12:16:23;32.10;46.90
20171;DHT22;10245;51.344;6.620;2022-08-03T12:18:54;32.10;46.40
20171;DHT22;10245;51.344;6.620;2022-08-03T12:21:18;32.00;46.60
20171;DHT22;10245;51.344;6.620;2022-08-03T12:23:45;32.10;46.50
20171;DHT22;10245;51.344;6.620;2022-08-03T12:26:09;32.30;46.00
20171;DHT22;10245;51.344;6.620;2022-08-03T12:28:33;32.40;45.70
20171;DHT22;10245;51.344;6.620;2022-08-03T12:31:02;32.70;46.90
20171;DHT22;10245;51.344;6.620;2022-08-03T12:33:28;32.60;46.70
20171;DHT22;10245;51.344;6.620;2022-08-03T12:36:03;32.70;46.50
20171;DHT22;10245;51.344;6.620;2022-08-03T12:38:28;32.60;43.90
20171;DHT22;10245;51.344;6.620;2022-08-03T12:40:58;32.80;46.30
20171;DHT22;10245;51.344;6.620;2022-08-03T12:43:24;32.60;44.80
20171;DHT22;10245;51.344;6.620;2022-08-03T12:46:09;32.80;44.50
20171;DHT22;10245;51.344;6.620;2022-08-03T12:48:35;32.90;44.90
20171;DHT22;10245;51.344;6.620;2022-08-03T12:51:07;32.90;43.70
20171;DHT22;10245;51.344;6.620;2022-08-03T12:53:31;32.80;44.90
20171;DHT22;10245;51.344;6.620;2022-08-03T12:56:01;32.70;46.50
20171;DHT22;10245;51.344;6.620;2022-08-03T12:58:31;32.80;45.50
20171;DHT22;10245;51.344;6.620;2022-08-03T13:00:56;32.80;45.00
20171;DHT22;10245;51.344;6.620;2022-08-03T13:03:19;32.80;45.50
20171;DHT22;10245;51.344;6.620;2022-08-03T13:06:10;32.90;43.40
20171;DHT22;10245;51.344;6.620;2022-08-03T13:08:35;33.00;42.50
20171;DHT22;10245;51.344;6.620;2022-08-03T13:10:58;32.90;42.20
20171;DHT22;10245;51.344;6.620;2022-08-03T13:13:37;33.10;43.30
20171;DHT22;10245;51.344;6.620;2022-08-03T13:16:01;32.80;42.50
20171;DHT22;10245;51.344;6.620;2022-08-03T13:18:25;33.00;43.80
20171;DHT22;10245;51.344;6.620;2022-08-03T13:20:48;32.80;43.80
20171;DHT22;10245;51.344;6.620;2022-08-03T13:23:13;32.70;44.20
20171;DHT22;10245;51.344;6.620;2022-08-03T13:25:43;32.90;44.00
20171;DHT22;10245;51.344;6.620;2022-08-03T13:28:17;32.80;43.30
20171;DHT22;10245;51.344;6.620;2022-08-03T13:30:41;32.90;42.60
20171;DHT22;10245;51.344;6.620;2022-08-03T13:33:05;33.00;43.20
20171;DHT22;10245;51.344;6.620;2022-08-03T13:35:28;32.90;43.80
20171;DHT22;10245;51.344;6.620;2022-08-03T13:37:52;32.90;42.80
20171;DHT22;10245;51.344;6.620;2022-08-03T13:40:17;32.80;44.30
20171;DHT22;10245;51.344;6.620;2022-08-03T13:42:44;32.80;43.10
20171;DHT22;10245;51.344;6.620;2022-08-03T13:45:08;32.50;41.50
20171;DHT22;10245;51.344;6.620;2022-08-03T13:47:32;32.60;38.40
20171;DHT22;10245;51.344;6.620;2022-08-03T13:49:56;32.70;39.30
20171;DHT22;10245;51.344;6.620;2022-08-03T13:52:23;32.60;41.60
20171;DHT22;10245;51.344;6.620;2022-08-03T13:54:47;32.50;39.00
20171;DHT22;10245;51.344;6.620;2022-08-03T13:57:12;32.70;39.20
20171;DHT22;10245;51.344;6.620;2022-08-03T13:59:58;32.70;40.40
20171;DHT22;10245;51.344;6.620;2022-08-03T14:02:24;32.70;39.70
20171;DHT22;10245;51.344;6.620;2022-08-03T14:04:48;32.90;39.00
20171;DHT22;10245;51.344;6.620;2022-08-03T14:07:12;32.80;41.10
20171;DHT22;10245;51.344;6.620;2022-08-03T14:09:36;32.80;38.30
20171;DHT22;10245;51.344;6.620;2022-08-03T14:12:00;33.20;40.20
20171;DHT22;10245;51.344;6.620;2022-08-03T14:14:31;33.20;38.70
20171;DHT22;10245;51.344;6.620;2022-08-03T14:16:54;33.30;37.00
20171;DHT22;10245;51.344;6.620;2022-08-03T14:19:18;33.40;38.80
20171;DHT22;10245;51.344;6.620;2022-08-03T14:21:46;33.30;38.30
20171;DHT22;10245;51.344;6.620;2022-08-03T14:24:27;33.20;38.60
20171;DHT22;10245;51.344;6.620;2022-08-03T14:26:50;33.10;38.30
20171;DHT22;10245;51.344;6.620;2022-08-03T14:29:17;32.90;39.10
20171;DHT22;10245;51.344;6.620;2022-08-03T14:31:42;32.80;38.00
20171;DHT22;10245;51.344;6.620;2022-08-03T14:34:26;32.70;37.30
20171;DHT22;10245;51.344;6.620;2022-08-03T14:36:49;32.60;38.90
20171;DHT22;10245;51.344;6.620;2022-08-03T14:39:13;32.60;38.00
20171;DHT22;10245;51.344;6.620;2022-08-03T14:41:37;32.40;38.80
20171;DHT22;10245;51.344;6.620;2022-08-03T14:44:01;32.20;40.10
20171;DHT22;10245;51.344;6.620;2022-08-03T14:46:25;32.00;38.90
20171;DHT22;10245;51.344;6.620;2022-08-03T14:48:50;32.20;39.70
20171;DHT22;10245;51.344;6.620;2022-08-03T14:51:34;32.50;39.10
20171;DHT22;10245;51.344;6.620;2022-08-03T14:53:57;32.90;40.10
20171;DHT22;10245;51.344;6.620;2022-08-03T14:56:21;32.90;38.90
20171;DHT22;10245;51.344;6.620;2022-08-03T14:58:44;32.90;39.10
20171;DHT22;10245;51.344;6.620;2022-08-03T15:01:08;32.90;40.40
20171;DHT22;10245;51.344;6.620;2022-08-03T15:03:53;32.80;39.60
20171;DHT22;10245;51.344;6.620;2022-08-03T15:06:17;33.10;38.70
20171;DHT22;10245;51.344;6.620;2022-08-03T15:08:41;33.20;38.30
20171;DHT22;10245;51.344;6.620;2022-08-03T15:11:24;33.20;39.10
20171;DHT22;10245;51.344;6.620;2022-08-03T15:13:48;33.00;38.20
20171;DHT22;10245;51.344;6.620;2022-08-03T15:16:11;33.00;39.00
20171;DHT22;10245;51.344;6.620;2022-08-03T15:18:35;33.00;39.80
20171;DHT22;10245;51.344;6.620;2022-08-03T15:21:00;33.00;38.90
20171;DHT22;10245;51.344;6.620;2022-08-03T15:23:24;33.10;38.20
20171;DHT22;10245;51.344;6.620;2022-08-03T15:25:47;33.10;38.70
20171;DHT22;10245;51.344;6.620;2022-08-03T15:28:31;33.20;39.60
20171;DHT22;10245;51.344;6.620;2022-08-03T15:30:58;33.30;40.20
20171;DHT22;10245;51.344;6.620;2022-08-03T15:33:22;33.00;40.90
20171;DHT22;10245;51.344;6.620;2022-08-03T15:35:45;32.90;39.40
20171;DHT22;10245;51.344;6.620;2022-08-03T15:38:10;32.90;39.10
20171;DHT22;10245;51.344;6.620;2022-08-03T15:40:34;32.90;39.70
20171;DHT22;10245;51.344;6.620;2022-08-03T15:42:59;33.00;41.00